Time;durP1;ratioP1;P1;durP2;ratioP2;P2;SDS_P1;SDS_P2;PMS_P1;PMS_P2;Temp;Humidity;BMP_temperature;BMP_pressure;BME280_temperature;BME280_humidity;BME280_pressure;Samples;Min_cycle;Max_cycle;Signal;HPM_P1;HPM_P2
2023/09/23 00:01:16;;;;;;;9.07;8.03;;;12.90;86.50;;;;;;5115742;28;20184;-88
2023/09/23 00:03:43;;;;;;;7.63;7.03;;;12.90;86.60;;;;;;5114557;28;20243;-88
2023/09/23 00:06:08;;;;;;;8.13;7.37;;;12.80;87.10;;;;;;5116494;28;20194;-88
2023/09/23 00:08:34;;;;;;;10.87;9.57;;;12.80;87.60;;;;;;5115551;28;20201;-88
2023/09/23 00:11:00;;;;;;;8.23;7.43;;;12.80;88.00;;;;;;5115792;28;20592;-88
2023/09/23 00:13:27;;;;;;;9.00;7.53;;;12.80;88.20;;;;;;5115710;28;20166;-88
2023/09/23 00:15:55;;;;;;;8.00;7.37;;;12.80;88.50;;;;;;5116566;28;20183;-88
2023/09/23 00:18:21;;;;;;;8.43;7.63;;;12.80;88.60;;;;;;5114556;28;20199;-89
2023/09/23 00:20:47;;;;;;;8.80;7.90;;;12.90;88.60;;;;;;5114450;28;20174;-88
2023/09/23 00:23:13;;;;;;;14.83;13.73;;;12.90;88.70;;;;;;5113740;28;20178;-86
2023/09/23 00:25:39;;;;;;;17.40;16.00;;;13.00;88.70;;;;;;5114621;28;20205;-87
2023/09/23 00:28:11;;;;;;;12.93;11.93;;;13.00;88.60;;;;;;5115659;28;20170;-86
2023/09/23 00:30:37;;;;;;;7.63;6.93;;;12.90;88.80;;;;;;5114406;28;20166;-86
2023/09/23 00:33:03;;;;;;;7.90;7.20;;;12.80;89.20;;;;;;5115817;28;20220;-87
2023/09/23 00:35:28;;;;;;;12.20;11.20;;;12.70;89.90;;;;;;5115518;28;20193;-87
2023/09/23 00:37:54;;;;;;;13.03;12.03;;;12.60;90.40;;;;;;5115764;28;20182;-87
2023/09/23 00:40:29;;;;;;;8.27;7.50;;;12.60;91.10;;;;;;5114548;28;20184;-87
2023/09/23 00:43:07;;;;;;;9.53;6.67;;;12.70;91.60;;;;;;5116091;28;20609;-87
2023/09/23 00:45:34;;;;;;;12.07;10.90;;;12.90;91.50;;;;;;5113932;28;20254;-87
2023/09/23 00:48:00;;;;;;;14.90;13.60;;;12.90;91.20;;;;;;5113716;28;20261;-87
2023/09/23 00:50:26;;;;;;;17.27;15.60;;;12.90;91.50;;;;;;5115024;28;20173;-87
2023/09/23 00:52:53;;;;;;;15.30;13.80;;;13.00;92.00;;;;;;5114093;28;20170;-87
2023/09/23 00:55:25;;;;;;;17.90;14.93;;;13.00;92.30;;;;;;5115145;27;20197;-86
2023/09/23 00:57:54;;;;;;;21.73;19.37;;;13.00;92.70;;;;;;5114293;28;20181;-86
2023/09/23 01:00:25;;;;;;;20.93;19.00;;;13.10;92.80;;;;;;5114227;28;20181;-86
2023/09/23 01:02:51;;;;;;;20.90;18.80;;;13.20;93.00;;;;;;5113983;28;20171;-86
2023/09/23 01:05:21;;;;;;;21.30;18.73;;;13.10;93.10;;;;;;5114831;28;20246;-87
2023/09/23 01:07:48;;;;;;;21.67;19.17;;;13.20;93.20;;;;;;5114991;28;20190;-87
2023/09/23 01:10:13;;;;;;;23.60;18.83;;;13.20;93.30;;;;;;5115003;28;20162;-88
2023/09/23 01:12:39;;;;;;;21.83;19.53;;;13.20;93.30;;;;;;5114055;28;20170;-87
2023/09/23 01:15:17;;;;;;;21.10;18.43;;;13.20;93.30;;;;;;5114687;28;20218;-87
2023/09/23 01:17:48;;;;;;;17.97;16.10;;;13.20;93.30;;;;;;5114749;28;20154;-87
2023/09/23 01:20:14;;;;;;;20.00;15.40;;;13.20;93.40;;;;;;5113560;28;20158;-87
2023/09/23 01:22:40;;;;;;;16.63;15.03;;;13.20;93.40;;;;;;5113466;28;20724;-87
2023/09/23 01:25:06;;;;;;;17.57;14.70;;;13.20;93.40;;;;;;5113141;28;20189;-86
2023/09/23 01:27:34;;;;;;;17.20;15.23;;;13.20;93.50;;;;;;5114760;28;20177;-87
2023/09/23 01:30:05;;;;;;;17.17;15.00;;;13.20;93.50;;;;;;5113047;28;20174;-87
2023/09/23 01:32:45;;;;;;;19.10;15.50;;;13.20;93.50;;;;;;5112895;28;20261;-87
2023/09/23 01:35:12;;;;;;;17.53;15.87;;;13.20;93.40;;;;;;5113050;28;20707;-87
2023/09/23 01:37:37;;;;;;;18.83;16.83;;;13.20;93.50;;;;;;5114324;28;20181;-87
2023/09/23 01:40:05;;;;;;;20.10;17.13;;;13.20;93.50;;;;;;5114261;28;20158;-87
2023/09/23 01:42:32;;;;;;;18.53;16.27;;;13.20;93.50;;;;;;5113266;28;20552;-87
2023/09/23 01:44:58;;;;;;;18.93;17.00;;;13.30;93.50;;;;;;5113022;28;20197;-87
2023/09/23 01:47:25;;;;;;;20.10;18.00;;;13.30;93.50;;;;;;5113806;28;20198;-88
2023/09/23 01:49:51;;;;;;;20.60;18.50;;;13.30;93.30;;;;;;5112793;28;20177;-88
2023/09/23 01:52:17;;;;;;;19.00;17.10;;;13.20;93.30;;;;;;5112725;28;20173;-88
2023/09/23 01:54:46;;;;;;;18.80;17.00;;;13.30;93.40;;;;;;5113565;28;20489;-87
2023/09/23 01:57:16;;;;;;;20.40;17.00;;;13.30;93.30;;;;;;5112449;28;20605;-87
2023/09/23 01:59:45;;;;;;;18.23;15.90;;;13.30;93.40;;;;;;5114247;28;20170;-87
2023/09/23 02:02:11;;;;;;;21.20;16.27;;;13.40;93.40;;;;;;5114854;28;20192;-88
2023/09/23 02:04:39;;;;;;;18.60;16.70;;;13.40;93.40;;;;;;5113762;28;20186;-87
2023/09/23 02:07:05;;;;;;;19.77;17.60;;;13.50;93.40;;;;;;5113727;28;20186;-88
2023/09/23 02:09:34;;;;;;;19.20;17.23;;;13.50;93.30;;;;;;5114019;28;20281;-88
2023/09/23 02:12:00;;;;;;;16.92;15.20;;;13.40;93.30;;;;;;5114198;28;20162;-87
2023/09/23 02:14:25;;;;;;;18.13;15.73;;;13.50;93.30;;;;;;5113902;28;20585;-87
2023/09/23 02:16:51;;;;;;;20.60;17.08;;;13.50;93.30;;;;;;5113758;28;20255;-88
2023/09/23 02:19:18;;;;;;;17.73;15.90;;;13.40;93.10;;;;;;5113948;28;20299;-87
2023/09/23 02:21:43;;;;;;;18.67;16.83;;;13.30;93.20;;;;;;5113573;28;20166;-87
2023/09/23 02:24:09;;;;;;;19.57;17.60;;;13.30;93.20;;;;;;5113860;28;20197;-87
2023/09/23 02:26:35;;;;;;;20.03;18.03;;;13.30;93.40;;;;;;5113114;28;20250;-86
2023/09/23 02:29:00;;;;;;;20.03;18.03;;;13.30;93.50;;;;;;5114140;28;20193;-87
2023/09/23 02:31:26;;;;;;;20.93;18.73;;;13.30;93.50;;;;;;5113978;28;20162;-87
2023/09/23 02:33:51;;;;;;;18.53;16.60;;;13.30;93.60;;;;;;5114193;28;20265;-87
2023/09/23 02:36:17;;;;;;;20.03;18.13;;;13.30;93.60;;;;;;5112290;28;20178;-87
2023/09/23 02:38:43;;;;;;;21.23;19.13;;;13.30;93.50;;;;;;5113638;28;20162;-87
2023/09/23 02:41:09;;;;;;;20.63;18.73;;;13.40;93.70;;;;;;5113009;28;20237;-87
2023/09/23 02:43:36;;;;;;;21.40;19.33;;;13.40;93.60;;;;;;5113981;28;20277;-86
2023/09/23 02:46:02;;;;;;;20.43;18.37;;;13.40;93.60;;;;;;5114778;28;20197;-86
2023/09/23 02:48:28;;;;;;;20.00;18.03;;;13.30;93.50;;;;;;5116389;28;20178;-86
2023/09/23 02:50:58;;;;;;;22.57;17.80;;;13.20;93.60;;;;;;5116708;28;20177;-86
2023/09/23 02:53:24;;;;;;;19.60;17.60;;;13.20;93.70;;;;;;5117358;28;20162;-88
2023/09/23 02:56:06;;;;;;;19.53;16.93;;;13.30;93.70;;;;;;5115832;28;20198;-87
2023/09/23 02:58:32;;;;;;;19.97;16.00;;;13.30;93.70;;;;;;5117300;28;20236;-87
2023/09/23 03:00:58;;;;;;;17.00;15.07;;;13.20;93.80;;;;;;5116117;28;20202;-87
2023/09/23 03:03:24;;;;;;;18.10;14.17;;;13.30;93.80;;;;;;5115765;28;20177;-87
2023/09/23 03:05:57;;;;;;;15.83;14.30;;;13.30;93.80;;;;;;5115735;28;20229;-87
2023/09/23 03:08:25;;;;;;;17.33;14.83;;;13.20;93.60;;;;;;5117393;28;20666;-87
2023/09/23 03:10:52;;;;;;;17.03;14.97;;;13.20;93.60;;;;;;5116902;28;20166;-87
2023/09/23 03:13:23;;;;;;;16.03;14.43;;;13.10;93.70;;;;;;5116669;28;20170;-87
2023/09/23 03:16:06;;;;;;;16.83;15.27;;;13.10;93.70;;;;;;5116808;28;20166;-87
2023/09/23 03:18:36;;;;;;;17.73;15.83;;;13.00;93.70;;;;;;5116724;28;20531;-89
2023/09/23 03:21:09;;;;;;;16.40;14.90;;;13.00;93.80;;;;;;5117033;28;20666;-87
2023/09/23 03:23:39;;;;;;;15.53;14.03;;;13.00;93.80;;;;;;5116402;28;20272;-88
2023/09/23 03:26:09;;;;;;;14.40;13.07;;;12.90;93.80;;;;;;5116396;28;20208;-88
2023/09/23 03:28:40;;;;;;;14.53;13.13;;;12.90;93.90;;;;;;5115146;28;20170;-88
2023/09/23 03:31:08;;;;;;;14.63;13.10;;;13.00;93.90;;;;;;5115141;28;20255;-88
2023/09/23 03:33:35;;;;;;;13.60;12.13;;;13.00;94.00;;;;;;5116213;28;20564;-88
2023/09/23 03:36:00;;;;;;;10.17;9.30;;;13.10;94.00;;;;;;5115073;28;20289;-87
2023/09/23 03:38:28;;;;;;;8.30;7.50;;;13.10;94.00;;;;;;5115030;28;20170;-88
2023/09/23 03:40:56;;;;;;;7.60;6.50;;;13.10;93.90;;;;;;5114996;28;20194;-87
2023/09/23 03:43:22;;;;;;;7.10;6.33;;;13.10;94.00;;;;;;5114882;28;20174;-88
2023/09/23 03:45:48;;;;;;;7.07;6.37;;;13.20;94.00;;;;;;5114878;28;20204;-87
2023/09/23 03:48:15;;;;;;;6.50;6.00;;;13.20;93.90;;;;;;5114767;28;20257;-87
2023/09/23 03:50:40;;;;;;;6.70;6.10;;;13.20;93.80;;;;;;5115916;27;20166;-88
2023/09/23 03:53:06;;;;;;;6.13;5.63;;;13.20;93.90;;;;;;5116052;28;20170;-88
2023/09/23 03:55:31;;;;;;;6.83;6.17;;;13.20;93.80;;;;;;5115556;28;20249;-87
2023/09/23 03:57:57;;;;;;;7.60;6.90;;;13.20;93.70;;;;;;5114538;28;20182;-87
2023/09/23 04:00:26;;;;;;;9.63;8.73;;;13.10;93.70;;;;;;5114733;28;20170;-87
2023/09/23 04:02:53;;;;;;;9.73;8.93;;;13.00;93.70;;;;;;5116057;28;20201;-87
2023/09/23 04:05:20;;;;;;;10.33;9.43;;;13.10;93.70;;;;;;5114737;28;20204;-87
2023/09/23 04:07:50;;;;;;;12.10;10.90;;;13.00;93.80;;;;;;5114577;28;20205;-87
2023/09/23 04:10:18;;;;;;;13.10;11.90;;;13.00;93.90;;;;;;5116011;28;20270;-87
2023/09/23 04:12:43;;;;;;;16.13;14.53;;;13.10;93.90;;;;;;5114268;28;20253;-88
2023/09/23 04:15:09;;;;;;;17.30;15.70;;;13.00;94.00;;;;;;5114267;28;20662;-88
2023/09/23 04:17:37;;;;;;;20.23;18.03;;;13.10;94.00;;;;;;5115442;28;20170;-88
2023/09/23 04:20:07;;;;;;;30.73;21.47;;;13.10;94.00;;;;;;5114375;28;20176;-87
2023/09/23 04:22:33;;;;;;;23.83;21.33;;;13.00;94.00;;;;;;5115698;28;20181;-88
2023/09/23 04:24:59;;;;;;;24.97;22.37;;;13.00;94.00;;;;;;5115401;27;20268;-88
2023/09/23 04:27:26;;;;;;;23.27;20.00;;;13.00;94.10;;;;;;5115408;28;20213;-88
2023/09/23 04:29:54;;;;;;;20.43;18.30;;;13.00;94.10;;;;;;5113976;28;20173;-88
2023/09/23 04:32:20;;;;;;;19.37;17.37;;;13.00;94.20;;;;;;5115224;28;20656;-88
2023/09/23 04:34:45;;;;;;;21.07;18.87;;;13.10;94.20;;;;;;5113878;28;20602;-88
2023/09/23 04:37:12;;;;;;;23.07;19.23;;;13.10;94.20;;;;;;5115219;28;20169;-88
2023/09/23 04:39:38;;;;;;;30.63;27.37;;;13.10;94.20;;;;;;5113907;28;20174;-87
2023/09/23 04:42:04;;;;;;;33.07;29.60;;;13.10;94.30;;;;;;5114007;28;20170;-87
2023/09/23 04:44:32;;;;;;;31.83;28.53;;;13.00;94.30;;;;;;5113897;28;20198;-87
2023/09/23 04:46:57;;;;;;;31.33;28.13;;;13.00;94.30;;;;;;5113781;28;20198;-87
2023/09/23 04:49:23;;;;;;;31.13;27.73;;;13.00;94.30;;;;;;5114010;28;20183;-87
2023/09/23 04:51:48;;;;;;;35.90;28.00;;;13.10;94.40;;;;;;5113732;28;20174;-88
2023/09/23 04:54:14;;;;;;;32.40;28.90;;;13.00;94.40;;;;;;5113543;28;20671;-87
2023/09/23 04:56:42;;;;;;;33.93;30.30;;;13.00;94.40;;;;;;5113586;28;20197;-87
2023/09/23 04:59:08;;;;;;;33.27;29.63;;;13.00;94.40;;;;;;5115128;28;20182;-87
2023/09/23 05:01:33;;;;;;;40.93;29.93;;;12.90;94.50;;;;;;5113813;28;20257;-87
2023/09/23 05:04:03;;;;;;;32.73;29.30;;;12.90;94.50;;;;;;5114608;28;20299;-87
2023/09/23 05:06:28;;;;;;;30.20;25.40;;;12.90;94.50;;;;;;5113837;28;20204;-87
2023/09/23 05:08:55;;;;;;;31.60;24.73;;;12.90;94.60;;;;;;5114149;28;20641;-87
2023/09/23 05:11:20;;;;;;;25.97;22.63;;;12.90;94.40;;;;;;5113236;28;20197;-87
2023/09/23 05:13:46;;;;;;;30.77;25.23;;;12.90;94.40;;;;;;5114659;28;20190;-87
2023/09/23 05:16:12;;;;;;;26.67;23.67;;;12.90;94.30;;;;;;5113690;28;20218;-88
2023/09/23 05:18:38;;;;;;;24.03;20.50;;;13.00;94.20;;;;;;5114901;28;20248;-87
2023/09/23 05:21:04;;;;;;;24.53;21.93;;;12.90;94.00;;;;;;5113292;28;20205;-87
2023/09/23 05:23:30;;;;;;;24.00;21.47;;;12.90;94.00;;;;;;5115443;28;20194;-87
2023/09/23 05:25:57;;;;;;;24.87;22.03;;;12.90;93.90;;;;;;5113181;28;20577;-87
2023/09/23 05:28:23;;;;;;;26.83;23.37;;;12.90;93.90;;;;;;5113108;28;20181;-88
2023/09/23 05:30:49;;;;;;;22.97;20.37;;;12.90;93.80;;;;;;5114605;28;20170;-87
2023/09/23 05:33:15;;;;;;;34.30;24.27;;;12.80;93.70;;;;;;5114453;28;20547;-87
2023/09/23 05:35:40;;;;;;;27.33;24.30;;;12.80;93.70;;;;;;5113526;28;20535;-87
2023/09/23 05:38:07;;;;;;;28.83;24.33;;;12.80;93.70;;;;;;5113248;28;20289;-88
2023/09/23 05:40:36;;;;;;;29.17;23.53;;;12.80;93.80;;;;;;5114527;28;20166;-88
2023/09/23 05:43:03;;;;;;;24.40;21.80;;;12.80;93.70;;;;;;5114280;28;20172;-88
2023/09/23 05:45:29;;;;;;;28.20;24.73;;;12.80;93.70;;;;;;5113560;28;20198;-87
2023/09/23 05:47:55;;;;;;;27.37;23.87;;;12.70;93.80;;;;;;5113193;28;20174;-87
2023/09/23 05:50:22;;;;;;;28.10;22.37;;;12.70;93.80;;;;;;5113988;28;20180;-88
2023/09/23 05:52:48;;;;;;;25.77;22.73;;;12.80;93.90;;;;;;5112994;28;20170;-88
2023/09/23 05:55:14;;;;;;;26.70;23.00;;;12.70;93.90;;;;;;5112790;28;20273;-88
2023/09/23 05:57:40;;;;;;;26.10;23.40;;;12.70;93.90;;;;;;5113710;28;20205;-87
2023/09/23 06:00:11;;;;;;;26.03;22.97;;;12.80;94.00;;;;;;5114327;28;20248;-87
2023/09/23 06:02:38;;;;;;;24.47;21.87;;;12.70;93.90;;;;;;5114168;28;20207;-87
2023/09/23 06:05:04;;;;;;;24.13;21.50;;;12.70;93.80;;;;;;5112507;28;20201;-88
2023/09/23 06:07:31;;;;;;;22.30;20.00;;;12.70;93.90;;;;;;5113878;27;20194;-87
2023/09/23 06:09:58;;;;;;;21.17;18.83;;;12.70;93.80;;;;;;5112861;28;20303;-87
2023/09/23 06:12:29;;;;;;;21.30;18.90;;;12.70;93.70;;;;;;5113155;28;20257;-88
2023/09/23 06:14:57;;;;;;;19.80;17.70;;;12.70;93.70;;;;;;5113887;28;20273;-87
2023/09/23 06:17:23;;;;;;;21.00;18.43;;;12.70;93.50;;;;;;5112791;28;20310;-87
2023/09/23 06:19:49;;;;;;;21.00;18.57;;;12.70;93.60;;;;;;5112974;28;20170;-87
2023/09/23 06:22:14;;;;;;;16.40;14.43;;;12.70;93.60;;;;;;5117132;28;20639;-88
2023/09/23 06:24:40;;;;;;;19.10;16.63;;;12.70;93.40;;;;;;5116371;28;20289;-86
2023/09/23 06:27:05;;;;;;;16.40;14.73;;;12.70;93.60;;;;;;5117597;28;20197;-87
2023/09/23 06:29:31;;;;;;;16.77;15.03;;;12.70;93.50;;;;;;5117822;28;20169;-87
2023/09/23 06:31:56;;;;;;;14.70;13.20;;;12.80;93.60;;;;;;5116500;28;20174;-86
2023/09/23 06:34:22;;;;;;;16.70;15.27;;;12.80;93.50;;;;;;5116450;28;20186;-87
2023/09/23 06:36:47;;;;;;;17.67;15.97;;;12.80;93.50;;;;;;5117859;28;20174;-87
2023/09/23 06:39:13;;;;;;;18.67;16.93;;;12.80;93.30;;;;;;5116660;28;20192;-88
2023/09/23 06:41:38;;;;;;;18.97;17.00;;;12.90;93.50;;;;;;5117843;28;20247;-87
2023/09/23 06:44:04;;;;;;;23.20;17.90;;;12.90;93.60;;;;;;5117612;28;20250;-87
2023/09/23 06:46:31;;;;;;;17.93;16.13;;;12.90;93.60;;;;;;5117357;28;20198;-88
2023/09/23 06:48:56;;;;;;;18.30;16.40;;;12.80;93.50;;;;;;5116049;28;20174;-88
2023/09/23 06:51:22;;;;;;;19.27;17.27;;;12.90;93.50;;;;;;5117856;28;20539;-88
2023/09/23 06:53:47;;;;;;;17.80;16.00;;;12.90;93.50;;;;;;5117076;28;20664;-88
2023/09/23 06:56:13;;;;;;;17.67;15.97;;;13.00;93.50;;;;;;5115896;28;20185;-88
2023/09/23 06:58:38;;;;;;;17.17;15.63;;;12.90;93.40;;;;;;5117292;28;20174;-87
2023/09/23 07:01:04;;;;;;;18.67;15.70;;;13.00;93.30;;;;;;5116907;28;20188;-85
2023/09/23 07:03:29;;;;;;;17.37;15.63;;;13.00;93.30;;;;;;5115832;28;20180;-88
2023/09/23 07:05:55;;;;;;;13.77;12.37;;;12.90;93.00;;;;;;5117100;28;20242;-87
2023/09/23 07:08:20;;;;;;;14.60;12.67;;;12.90;93.00;;;;;;5115763;28;20269;-88
2023/09/23 07:10:46;;;;;;;15.63;14.17;;;12.90;93.00;;;;;;5115702;28;20196;-87
2023/09/23 07:13:11;;;;;;;15.33;13.93;;;13.00;93.10;;;;;;5117205;28;20223;-87
2023/09/23 07:15:38;;;;;;;14.83;13.43;;;12.90;93.00;;;;;;5115910;28;20178;-88
2023/09/23 07:18:05;;;;;;;12.20;10.30;;;12.90;93.00;;;;;;5117133;27;20169;-87
2023/09/23 07:20:31;;;;;;;11.53;10.37;;;13.00;93.00;;;;;;5116919;28;20178;-87
2023/09/23 07:22:57;;;;;;;13.23;10.93;;;12.90;92.80;;;;;;5116303;28;20208;-87
2023/09/23 07:25:22;;;;;;;11.47;10.47;;;13.00;92.80;;;;;;5117654;28;20190;-88
2023/09/23 07:27:49;;;;;;;10.53;9.63;;;13.10;92.80;;;;;;5117731;28;20169;-87
2023/09/23 07:30:15;;;;;;;10.97;9.83;;;13.20;92.60;;;;;;5115706;28;20525;-87
2023/09/23 07:32:40;;;;;;;13.63;10.10;;;13.10;92.00;;;;;;5115521;28;20303;-86
2023/09/23 07:35:07;;;;;;;11.03;9.77;;;13.20;92.40;;;;;;5115443;28;20217;-87
2023/09/23 07:37:33;;;;;;;11.77;10.57;;;13.30;92.00;;;;;;5116554;28;20162;-87
2023/09/23 07:39:59;;;;;;;11.40;10.40;;;13.50;92.00;;;;;;5115230;28;20273;-87
2023/09/23 07:42:24;;;;;;;12.00;10.77;;;13.60;91.90;;;;;;5115336;28;20205;-86
2023/09/23 07:44:50;;;;;;;10.03;9.03;;;13.50;91.50;;;;;;5116441;28;20221;-86
2023/09/23 07:47:15;;;;;;;11.33;10.20;;;13.40;91.30;;;;;;5115256;28;20284;-86
2023/09/23 07:49:41;;;;;;;11.33;10.33;;;13.50;91.30;;;;;;5115213;28;20178;-87
2023/09/23 07:52:06;;;;;;;11.57;10.27;;;13.50;91.20;;;;;;5116194;28;20170;-87
2023/09/23 07:54:33;;;;;;;11.20;10.20;;;13.50;91.20;;;;;;5116203;27;20190;-87
2023/09/23 07:56:58;;;;;;;9.90;8.97;;;13.60;91.30;;;;;;5114805;28;20189;-87
2023/09/23 07:59:24;;;;;;;11.20;10.20;;;13.70;91.40;;;;;;5115042;28;20178;-87
2023/09/23 08:01:50;;;;;;;10.70;9.67;;;13.60;91.20;;;;;;5114820;28;20170;-86
2023/09/23 08:04:15;;;;;;;13.03;12.03;;;13.60;91.30;;;;;;5116018;27;20200;-86
2023/09/23 08:06:41;;;;;;;11.17;10.30;;;13.70;91.20;;;;;;5114660;28;20197;-86
2023/09/23 08:09:06;;;;;;;13.03;11.87;;;13.60;91.00;;;;;;5114579;28;20170;-87
2023/09/23 08:11:32;;;;;;;9.33;8.43;;;13.60;90.90;;;;;;5115672;28;20174;-86
2023/09/23 08:13:58;;;;;;;8.33;7.53;;;13.60;90.40;;;;;;5114272;28;20537;-88
2023/09/23 08:16:23;;;;;;;9.00;8.20;;;13.60;90.30;;;;;;5114080;28;20698;-86
2023/09/23 08:18:49;;;;;;;11.30;10.20;;;13.70;90.30;;;;;;5115722;28;20197;-86
2023/09/23 08:21:15;;;;;;;14.57;10.73;;;13.70;90.50;;;;;;5115345;28;20641;-86
2023/09/23 08:23:41;;;;;;;10.20;8.13;;;13.80;90.40;;;;;;5115145;28;20217;-87
2023/09/23 08:26:07;;;;;;;9.70;8.67;;;13.70;90.00;;;;;;5115130;28;20273;-86
2023/09/23 08:28:33;;;;;;;9.47;7.80;;;13.70;90.10;;;;;;5113985;28;20174;-87
2023/09/23 08:30:58;;;;;;;12.83;11.63;;;13.80;90.40;;;;;;5115086;28;20169;-87
2023/09/23 08:33:24;;;;;;;11.87;10.80;;;13.70;89.70;;;;;;5115004;28;20175;-86
2023/09/23 08:35:49;;;;;;;10.03;7.57;;;13.80;90.10;;;;;;5113797;28;20178;-86
2023/09/23 08:38:15;;;;;;;9.00;8.30;;;13.80;90.10;;;;;;5115049;28;20182;-87
2023/09/23 08:40:43;;;;;;;8.27;7.63;;;13.90;90.30;;;;;;5115259;28;20174;-87
2023/09/23 08:43:08;;;;;;;12.93;11.83;;;13.90;89.80;;;;;;5112768;28;20216;-88
2023/09/23 08:45:43;;;;;;;12.77;11.47;;;13.80;89.50;;;;;;5114955;28;20572;-87
2023/09/23 08:48:09;;;;;;;10.10;8.40;;;13.80;89.80;;;;;;5113546;28;20542;-86
2023/09/23 08:50:35;;;;;;;8.90;8.07;;;13.80;89.70;;;;;;5113560;28;20182;-87
2023/09/23 08:53:04;;;;;;;11.23;10.23;;;13.80;89.90;;;;;;5113522;28;20227;-86
2023/09/23 08:55:30;;;;;;;11.53;10.70;;;13.80;89.90;;;;;;5113386;28;20217;-86
2023/09/23 08:58:01;;;;;;;12.37;11.37;;;13.70;90.00;;;;;;5114637;28;20174;-87
2023/09/23 09:00:29;;;;;;;10.90;10.00;;;13.80;90.20;;;;;;5113563;28;20197;-86
2023/09/23 09:02:55;;;;;;;10.60;9.70;;;13.80;90.20;;;;;;5114608;27;20197;-86
2023/09/23 09:05:20;;;;;;;11.33;10.43;;;13.90;89.90;;;;;;5114378;28;20244;-84
2023/09/23 09:07:46;;;;;;;11.03;9.90;;;13.90;89.80;;;;;;5115179;28;20208;-87
2023/09/23 09:10:12;;;;;;;8.60;7.80;;;13.90;89.90;;;;;;5113132;28;20191;-88
2023/09/23 09:12:37;;;;;;;8.40;7.30;;;14.00;89.50;;;;;;5113199;28;20170;-87
2023/09/23 09:15:03;;;;;;;8.80;8.00;;;14.20;89.50;;;;;;5113352;28;20220;-87
2023/09/23 09:17:32;;;;;;;9.17;8.27;;;14.40;89.30;;;;;;5113433;28;20185;-87
2023/09/23 09:20:01;;;;;;;9.77;8.90;;;14.60;88.60;;;;;;5113334;28;20174;-87
2023/09/23 09:22:27;;;;;;;9.00;8.30;;;14.50;87.60;;;;;;5113005;28;20269;-87
2023/09/23 09:24:53;;;;;;;9.13;8.23;;;14.70;88.00;;;;;;5114167;28;20213;-87
2023/09/23 09:27:22;;;;;;;9.18;8.30;;;14.70;87.90;;;;;;5114512;28;20201;-88
2023/09/23 09:29:47;;;;;;;9.23;8.38;;;14.60;87.80;;;;;;5114395;28;20166;-87
2023/09/23 09:32:15;;;;;;;9.20;8.43;;;14.50;87.80;;;;;;5114274;28;20641;-87
2023/09/23 09:34:47;;;;;;;10.60;9.70;;;14.60;88.10;;;;;;5114161;28;20186;-87
2023/09/23 09:37:14;;;;;;;10.93;9.23;;;14.70;88.30;;;;;;5112881;28;20660;-88
2023/09/23 09:39:52;;;;;;;12.43;10.10;;;14.80;87.70;;;;;;5113714;28;20181;-87
2023/09/23 09:42:28;;;;;;;9.65;8.88;;;15.10;87.70;;;;;;5114185;28;20193;-87
2023/09/23 09:44:56;;;;;;;10.30;9.00;;;15.30;86.40;;;;;;5114100;28;20191;-87
2023/09/23 09:47:22;;;;;;;11.45;9.48;;;15.10;85.20;;;;;;5114049;28;20212;-88
2023/09/23 09:49:51;;;;;;;13.45;9.40;;;14.90;85.60;;;;;;5114040;28;20212;-87
2023/09/23 09:52:23;;;;;;;11.73;9.23;;;14.90;85.80;;;;;;5112647;28;20170;-87
2023/09/23 09:54:57;;;;;;;10.05;9.07;;;14.90;85.40;;;;;;5112456;28;20284;-86
2023/09/23 09:57:25;;;;;;;10.85;9.30;;;15.20;86.00;;;;;;5113521;28;20169;-85
2023/09/23 09:59:53;;;;;;;9.90;9.10;;;15.20;85.40;;;;;;5113582;28;20565;-86
2023/09/23 10:02:21;;;;;;;9.50;8.80;;;15.20;85.00;;;;;;5115144;28;20181;-85
2023/09/23 10:04:49;;;;;;;10.90;9.90;;;15.20;84.30;;;;;;5114761;28;20687;-85
2023/09/23 10:07:16;;;;;;;9.82;9.15;;;15.30;83.80;;;;;;5115356;28;20566;-85
2023/09/23 10:09:55;;;;;;;11.60;10.43;;;15.50;83.20;;;;;;5114975;28;20166;-86
2023/09/23 10:12:32;;;;;;;10.60;9.70;;;15.80;82.80;;;;;;5113270;28;20162;-85
2023/09/23 10:14:59;;;;;;;11.65;10.60;;;16.10;83.00;;;;;;5113672;28;20277;-86
2023/09/23 10:17:33;;;;;;;9.73;8.98;;;16.20;81.60;;;;;;5112792;28;20201;-87
2023/09/23 10:19:58;;;;;;;11.85;10.77;;;16.20;82.80;;;;;;5112710;28;20218;-87
2023/09/23 10:22:28;;;;;;;11.38;10.50;;;15.80;81.00;;;;;;5112942;28;20178;-87
2023/09/23 10:25:03;;;;;;;11.43;10.52;;;15.90;81.90;;;;;;5112459;28;20204;-87
2023/09/23 10:27:28;;;;;;;11.25;10.52;;;16.10;81.00;;;;;;5113920;28;20737;-87
2023/09/23 10:29:54;;;;;;;11.48;10.50;;;15.80;81.60;;;;;;5114438;28;20174;-87
2023/09/23 10:32:20;;;;;;;10.07;9.38;;;15.70;81.90;;;;;;5112726;28;20177;-86
2023/09/23 10:34:55;;;;;;;11.38;10.43;;;15.90;82.60;;;;;;5113686;28;20197;-88
2023/09/23 10:37:29;;;;;;;11.88;10.73;;;15.90;81.50;;;;;;5112506;28;20190;-87
2023/09/23 10:39:55;;;;;;;11.02;10.25;;;16.10;80.80;;;;;;5112379;28;20242;-86
2023/09/23 10:42:21;;;;;;;11.93;11.13;;;16.60;81.10;;;;;;5113830;28;20177;-86
2023/09/23 10:44:50;;;;;;;11.05;10.35;;;16.70;78.60;;;;;;5113699;28;20186;-87
2023/09/23 10:47:16;;;;;;;11.65;10.63;;;16.80;79.50;;;;;;5113582;28;20190;-87
2023/09/23 10:49:41;;;;;;;11.40;10.65;;;16.40;80.00;;;;;;5113869;28;20176;-86
2023/09/23 10:52:08;;;;;;;11.40;10.23;;;16.20;79.50;;;;;;5113948;28;20178;-88
2023/09/23 10:54:34;;;;;;;11.25;10.32;;;16.20;81.10;;;;;;5113901;28;20608;-88
2023/09/23 10:57:00;;;;;;;11.90;10.90;;;16.20;80.50;;;;;;5112477;28;20660;-86
2023/09/23 10:59:26;;;;;;;12.18;11.15;;;16.10;80.00;;;;;;5112883;28;20193;-86
2023/09/23 11:01:55;;;;;;;12.45;11.55;;;16.30;79.70;;;;;;5112625;28;20645;-87
2023/09/23 11:04:23;;;;;;;13.48;12.18;;;16.50;79.60;;;;;;5112136;28;20217;-87
2023/09/23 11:06:48;;;;;;;12.55;11.52;;;16.40;79.10;;;;;;5115324;28;20722;-87
2023/09/23 11:09:14;;;;;;;13.93;12.82;;;16.20;79.40;;;;;;5117059;28;20182;-88
2023/09/23 11:11:41;;;;;;;13.23;12.27;;;16.20;79.50;;;;;;5116572;28;20170;-88
2023/09/23 11:14:13;;;;;;;12.55;11.57;;;16.40;79.90;;;;;;5117744;28;20251;-88
2023/09/23 11:16:45;;;;;;;14.18;12.88;;;16.20;79.80;;;;;;5115742;28;20685;-87
2023/09/23 11:19:11;;;;;;;14.30;13.20;;;16.10;79.20;;;;;;5117809;28;20182;-87
2023/09/23 11:21:44;;;;;;;15.38;14.18;;;16.10;79.50;;;;;;5115835;28;20226;-88
2023/09/23 11:24:10;;;;;;;14.50;13.30;;;16.10;79.60;;;;;;5116912;28;20186;-87
2023/09/23 11:26:41;;;;;;;14.50;13.43;;;16.00;80.00;;;;;;5116676;28;20196;-87
2023/09/23 11:29:07;;;;;;;15.38;14.27;;;15.90;79.80;;;;;;5115574;28;20162;-87
2023/09/23 11:31:33;;;;;;;15.15;13.98;;;15.80;80.10;;;;;;5115411;28;20177;-88
2023/09/23 11:33:59;;;;;;;15.35;14.15;;;15.80;80.50;;;;;;5116014;28;20190;-87
2023/09/23 11:36:24;;;;;;;16.13;14.93;;;15.80;79.80;;;;;;5117133;28;20253;-87
2023/09/23 11:38:49;;;;;;;15.48;14.35;;;15.80;79.30;;;;;;5117099;28;20200;-86
2023/09/23 11:41:16;;;;;;;16.27;14.88;;;15.70;79.50;;;;;;5115781;28;20192;-87
2023/09/23 11:43:41;;;;;;;15.85;14.75;;;15.80;79.00;;;;;;5115347;28;20650;-87
2023/09/23 11:46:07;;;;;;;15.90;14.70;;;15.80;79.10;;;;;;5116504;28;20282;-88
2023/09/23 11:48:35;;;;;;;17.17;15.68;;;15.90;80.20;;;;;;5116781;28;20185;-87
2023/09/23 11:51:00;;;;;;;15.95;14.52;;;15.90;79.40;;;;;;5115640;28;20653;-88
2023/09/23 11:53:26;;;;;;;17.42;15.93;;;16.00;80.10;;;;;;5115484;28;20274;-87
2023/09/23 11:55:51;;;;;;;16.95;15.50;;;15.90;79.50;;;;;;5115125;28;20195;-87
2023/09/23 11:58:19;;;;;;;18.40;16.60;;;15.90;80.10;;;;;;5115152;28;20215;-88
2023/09/23 12:00:47;;;;;;;17.80;16.05;;;15.90;79.50;;;;;;5115417;28;20527;-88
2023/09/23 12:03:14;;;;;;;15.88;13.75;;;15.80;80.50;;;;;;5115144;28;20197;-88
2023/09/23 12:05:41;;;;;;;15.65;14.32;;;15.80;81.50;;;;;;5116288;28;20648;-88
2023/09/23 12:08:09;;;;;;;17.65;16.08;;;15.90;81.00;;;;;;5116248;28;20227;-87
2023/09/23 12:10:35;;;;;;;17.25;15.48;;;16.10;81.00;;;;;;5115034;28;20170;-87
2023/09/23 12:13:05;;;;;;;16.88;15.27;;;16.30;80.30;;;;;;5115165;28;20557;-87
2023/09/23 12:15:31;;;;;;;17.35;15.85;;;16.30;80.60;;;;;;5116357;28;20193;-88
2023/09/23 12:17:57;;;;;;;18.35;16.77;;;16.40;80.20;;;;;;5114889;28;20170;-88
2023/09/23 12:20:23;;;;;;;15.90;14.70;;;16.30;80.20;;;;;;5115012;28;20531;-87
2023/09/23 12:22:49;;;;;;;15.88;14.38;;;16.20;80.00;;;;;;5114848;28;20173;-88
2023/09/23 12:25:15;;;;;;;14.75;13.45;;;16.30;80.20;;;;;;5115055;28;20239;-88
2023/09/23 12:27:40;;;;;;;14.85;13.55;;;16.40;80.50;;;;;;5115187;28;20198;-88
2023/09/23 12:30:07;;;;;;;16.70;15.07;;;16.50;79.70;;;;;;5114668;28;20169;-87